Time;durP1;ratioP1;P1;durP2;ratioP2;P2;SDS_P1;SDS_P2;PMS_P1;PMS_P2;Temp;Humidity;BMP_temperature;BMP_pressure;BME280_temperature;BME280_humidity;BME280_pressure;Samples;Min_cycle;Max_cycle;Signal;HPM_P1;HPM_P2
2022/09/30 00:02:13;;;;;;;12.00;7.53;;;6.00;99.90;;;;;;5050149;28;20981;-74
2022/09/30 00:04:40;;;;;;;9.73;6.93;;;6.00;99.90;;;;;;5051038;28;20881;-74
2022/09/30 00:07:06;;;;;;;7.27;6.50;;;6.00;99.90;;;;;;5050482;28;20458;-74
2022/09/30 00:09:33;;;;;;;9.90;7.00;;;6.00;99.90;;;;;;5050529;28;20472;-74
2022/09/30 00:12:00;;;;;;;14.50;8.27;;;5.90;99.90;;;;;;5049541;28;20455;-74
2022/09/30 00:14:27;;;;;;;8.67;6.90;;;5.90;99.90;;;;;;5051137;28;20489;-74
2022/09/30 00:16:54;;;;;;;10.83;6.93;;;5.90;99.90;;;;;;5051014;28;20814;-74
2022/09/30 00:19:22;;;;;;;11.37;7.53;;;5.90;99.90;;;;;;5050620;28;20453;-74
2022/09/30 00:21:48;;;;;;;11.17;7.20;;;5.90;99.90;;;;;;5050422;28;20499;-74
2022/09/30 00:24:15;;;;;;;11.97;7.13;;;5.80;99.90;;;;;;5049414;28;20473;-74
2022/09/30 00:26:42;;;;;;;9.13;7.03;;;5.90;99.90;;;;;;5050623;28;20869;-74
2022/09/30 00:29:10;;;;;;;10.23;8.70;;;5.90;99.90;;;;;;5050007;28;20450;-74
2022/09/30 00:31:37;;;;;;;9.60;6.80;;;5.80;99.90;;;;;;5050391;28;20458;-74
2022/09/30 00:34:07;;;;;;;15.00;8.27;;;5.80;99.90;;;;;;5049702;28;20489;-74
2022/09/30 00:36:39;;;;;;;12.70;8.90;;;5.80;99.90;;;;;;5043806;28;20453;-74
2022/09/30 00:39:07;;;;;;;11.93;8.60;;;5.80;99.90;;;;;;5050538;28;20481;-74
2022/09/30 00:41:34;;;;;;;11.50;9.13;;;5.80;99.90;;;;;;5044246;28;20452;-74
2022/09/30 00:44:01;;;;;;;10.57;8.57;;;5.80;99.90;;;;;;5049607;28;20476;-74
2022/09/30 00:46:35;;;;;;;13.37;8.97;;;5.70;99.90;;;;;;5049741;28;20786;-73
2022/09/30 00:49:06;;;;;;;14.87;9.07;;;5.70;99.90;;;;;;5050516;28;20459;-74
2022/09/30 00:51:38;;;;;;;13.90;9.83;;;5.70;99.90;;;;;;5043737;28;20816;-74
2022/09/30 00:54:10;;;;;;;15.93;9.43;;;5.70;99.90;;;;;;5049733;28;20882;-74
2022/09/30 00:56:41;;;;;;;13.23;8.97;;;5.70;99.90;;;;;;5044539;28;20458;-73
2022/09/30 00:59:13;;;;;;;16.40;9.57;;;5.70;99.90;;;;;;5049570;28;20456;-74
2022/09/30 01:01:41;;;;;;;14.27;9.70;;;5.70;99.90;;;;;;5049480;28;20959;-74
2022/09/30 01:04:12;;;;;;;13.80;8.90;;;5.60;99.90;;;;;;5049814;28;20471;-74
2022/09/30 01:06:41;;;;;;;14.73;8.70;;;5.60;99.90;;;;;;5050324;28;20455;-74
2022/09/30 01:09:08;;;;;;;9.33;7.87;;;5.60;99.90;;;;;;5050189;28;20512;-74
2022/09/30 01:11:35;;;;;;;13.80;8.67;;;5.60;99.90;;;;;;5043799;28;20458;-74
2022/09/30 01:14:05;;;;;;;11.47;9.00;;;5.60;99.90;;;;;;5049023;28;20482;-74
2022/09/30 01:16:55;;;;;;;13.90;9.20;;;5.60;99.90;;;;;;5050156;28;20960;-74
2022/09/30 01:19:36;;;;;;;10.40;7.60;;;5.50;99.90;;;;;;5050040;28;20449;-74
2022/09/30 01:22:19;;;;;;;10.80;7.80;;;5.50;99.90;;;;;;5050222;28;20450;-74
2022/09/30 01:25:12;;;;;;;11.60;7.30;;;5.40;99.90;;;;;;5049512;28;20999;-74
2022/09/30 01:28:19;;;;;;;10.43;6.97;;;5.30;99.90;;;;;;5047614;28;20455;-74
2022/09/30 01:31:02;;;;;;;8.63;7.53;;;5.30;99.90;;;;;;5048177;28;20459;-74
2022/09/30 01:33:41;;;;;;;8.97;7.77;;;5.30;99.90;;;;;;5052295;28;20455;-74
2022/09/30 01:36:34;;;;;;;9.10;7.23;;;5.30;99.90;;;;;;5053041;28;20449;-74
2022/09/30 01:39:12;;;;;;;9.10;6.87;;;5.30;99.90;;;;;;5050413;28;20453;-74
2022/09/30 01:41:45;;;;;;;10.07;7.10;;;5.30;99.90;;;;;;5050043;28;20456;-74
2022/09/30 01:44:18;;;;;;;13.80;7.57;;;5.30;99.90;;;;;;5052128;28;20475;-74
2022/09/30 01:46:52;;;;;;;10.90;7.23;;;5.30;99.90;;;;;;5053327;28;20468;-74
2022/09/30 01:49:29;;;;;;;9.13;6.70;;;5.30;99.90;;;;;;5053048;28;20466;-74
2022/09/30 01:52:03;;;;;;;10.37;7.47;;;5.20;99.90;;;;;;5053326;28;20455;-74
2022/09/30 01:54:36;;;;;;;10.13;7.40;;;5.20;99.90;;;;;;5051796;28;20573;-74
2022/09/30 01:57:08;;;;;;;8.73;7.07;;;5.10;99.90;;;;;;5052695;28;20475;-74
2022/09/30 01:59:37;;;;;;;9.20;7.50;;;5.10;99.90;;;;;;5052753;28;20807;-74
2022/09/30 02:02:10;;;;;;;8.73;7.10;;;5.10;99.90;;;;;;5051903;28;20464;-74
2022/09/30 02:04:41;;;;;;;11.63;7.40;;;5.10;99.90;;;;;;5052599;28;20466;-74
2022/09/30 02:07:11;;;;;;;8.40;7.37;;;5.10;99.90;;;;;;5052829;28;20448;-74
2022/09/30 02:09:42;;;;;;;10.90;7.53;;;5.10;99.90;;;;;;5049565;28;20454;-74
2022/09/30 02:12:15;;;;;;;9.67;7.73;;;5.10;99.90;;;;;;5052553;28;20461;-74
2022/09/30 02:14:46;;;;;;;10.00;6.27;;;5.10;99.90;;;;;;5049622;28;20492;-74
2022/09/30 02:17:18;;;;;;;10.27;6.67;;;5.10;99.90;;;;;;5052829;28;20824;-74
2022/09/30 02:19:49;;;;;;;8.40;6.60;;;5.10;99.90;;;;;;5052898;28;20534;-74
2022/09/30 02:22:20;;;;;;;6.90;6.30;;;5.00;99.90;;;;;;5051733;28;20446;-74
2022/09/30 02:24:51;;;;;;;7.10;6.40;;;4.90;99.90;;;;;;5051938;28;21100;-74
2022/09/30 02:27:26;;;;;;;9.47;6.87;;;4.90;99.90;;;;;;5051465;28;20833;-74
2022/09/30 02:29:57;;;;;;;7.07;6.37;;;4.90;99.90;;;;;;5052798;28;20459;-74
2022/09/30 02:32:30;;;;;;;6.67;6.07;;;4.90;99.90;;;;;;5050532;28;20472;-74
2022/09/30 02:35:02;;;;;;;8.90;6.40;;;4.90;99.90;;;;;;5047249;28;20482;-74
2022/09/30 02:37:34;;;;;;;8.90;6.90;;;4.80;99.90;;;;;;5051899;28;20452;-74
2022/09/30 02:40:04;;;;;;;7.93;6.87;;;4.80;99.90;;;;;;5052043;28;20460;-74
2022/09/30 02:42:32;;;;;;;6.67;6.03;;;4.80;99.90;;;;;;5051220;28;20475;-74
2022/09/30 02:45:02;;;;;;;8.53;5.90;;;4.80;99.90;;;;;;5051866;28;20467;-74
2022/09/30 02:47:44;;;;;;;9.57;6.33;;;4.70;99.90;;;;;;5051067;28;20475;-74
2022/09/30 02:50:17;;;;;;;10.70;6.80;;;4.60;99.90;;;;;;5051693;28;20831;-74
2022/09/30 02:52:56;;;;;;;12.83;6.90;;;4.60;99.90;;;;;;5046349;28;20463;-74
2022/09/30 02:55:28;;;;;;;11.90;7.20;;;4.60;99.90;;;;;;5051278;28;22306;-74
2022/09/30 02:58:00;;;;;;;8.83;6.90;;;4.50;99.90;;;;;;5052271;28;20456;-74
2022/09/30 03:00:27;;;;;;;7.90;7.10;;;4.50;99.90;;;;;;5051001;28;20477;-74
2022/09/30 03:02:59;;;;;;;8.63;6.83;;;4.40;99.90;;;;;;5051753;28;20454;-74
2022/09/30 03:05:27;;;;;;;7.03;6.33;;;4.30;99.90;;;;;;5051112;28;20466;-74
2022/09/30 03:07:54;;;;;;;8.53;6.37;;;4.40;99.90;;;;;;5052111;28;20455;-74
2022/09/30 03:10:20;;;;;;;7.90;6.23;;;4.40;99.90;;;;;;5051464;28;20460;-74
2022/09/30 03:13:06;;;;;;;8.53;6.23;;;4.40;99.90;;;;;;5051447;28;20453;-74
2022/09/30 03:15:47;;;;;;;7.90;6.07;;;4.40;99.90;;;;;;5051223;28;20496;-74
2022/09/30 03:18:39;;;;;;;8.67;6.13;;;4.40;99.90;;;;;;5051530;28;20459;-74
2022/09/30 03:21:22;;;;;;;8.87;6.53;;;4.40;99.90;;;;;;5048269;28;20463;-74
2022/09/30 03:24:09;;;;;;;6.40;5.80;;;4.40;99.90;;;;;;5046388;28;20482;-73
2022/09/30 03:26:43;;;;;;;6.50;5.90;;;4.30;99.90;;;;;;5051091;28;20575;-74
2022/09/30 03:29:19;;;;;;;6.33;5.67;;;4.40;99.90;;;;;;5051011;28;20966;-74
2022/09/30 03:31:57;;;;;;;6.50;5.90;;;4.30;99.90;;;;;;5045327;28;20455;-74
2022/09/30 03:34:32;;;;;;;7.83;6.40;;;4.30;99.90;;;;;;5050381;28;21038;-74
2022/09/30 03:37:02;;;;;;;6.70;6.00;;;4.30;99.90;;;;;;5051240;28;20456;-74
2022/09/30 03:39:39;;;;;;;7.40;5.77;;;4.30;99.90;;;;;;5050861;28;20454;-74
2022/09/30 03:42:12;;;;;;;9.13;6.67;;;4.20;99.90;;;;;;5050542;28;20453;-74
2022/09/30 03:44:45;;;;;;;16.30;6.93;;;4.20;99.90;;;;;;5050230;28;20981;-75
2022/09/30 03:47:15;;;;;;;10.30;7.10;;;4.10;99.90;;;;;;5049352;28;20471;-75
2022/09/30 03:49:48;;;;;;;8.83;6.53;;;4.10;99.90;;;;;;5050839;28;20477;-74
2022/09/30 03:52:15;;;;;;;7.60;6.80;;;4.00;99.90;;;;;;5050659;28;20854;-74
2022/09/30 03:54:47;;;;;;;8.00;7.00;;;4.00;99.90;;;;;;5049911;28;20493;-74
2022/09/30 03:57:14;;;;;;;9.17;7.00;;;3.90;99.90;;;;;;5050164;28;20450;-73
2022/09/30 03:59:40;;;;;;;9.60;7.20;;;3.90;99.90;;;;;;5051082;28;20453;-75
2022/09/30 04:02:09;;;;;;;16.53;8.53;;;3.90;99.90;;;;;;5050498;28;20837;-74
2022/09/30 04:04:36;;;;;;;27.50;9.27;;;3.90;99.90;;;;;;5049653;28;20987;-74
2022/09/30 04:07:04;;;;;;;14.97;9.03;;;3.80;99.90;;;;;;5050145;28;20458;-74
2022/09/30 04:09:31;;;;;;;16.60;9.27;;;3.80;99.90;;;;;;5050918;28;20487;-74
2022/09/30 04:11:58;;;;;;;20.10;8.37;;;3.90;99.90;;;;;;5050568;28;20463;-74
2022/09/30 04:14:24;;;;;;;53.03;9.50;;;3.90;99.90;;;;;;5049503;28;20483;-74
2022/09/30 04:16:51;;;;;;;38.13;10.03;;;3.90;99.90;;;;;;5050502;28;20466;-74
2022/09/30 04:19:18;;;;;;;23.67;9.10;;;3.90;99.90;;;;;;5050419;28;20969;-74
2022/09/30 04:21:44;;;;;;;37.30;9.17;;;3.90;99.90;;;;;;5044137;28;20463;-73
2022/09/30 04:24:13;;;;;;;18.17;8.57;;;3.90;99.90;;;;;;5050610;28;20483;-73
2022/09/30 04:26:39;;;;;;;19.00;8.23;;;3.90;99.90;;;;;;5050152;28;20977;-73
2022/09/30 04:29:06;;;;;;;18.97;8.90;;;3.90;99.90;;;;;;5050673;28;20457;-73
2022/09/30 04:31:33;;;;;;;12.60;8.30;;;4.00;99.90;;;;;;5049817;28;20452;-73
2022/09/30 04:33:59;;;;;;;13.10;8.57;;;4.00;99.90;;;;;;5050397;28;20552;-73
2022/09/30 04:36:26;;;;;;;23.37;9.50;;;4.00;99.90;;;;;;5049702;28;20495;-74
2022/09/30 04:38:53;;;;;;;16.43;9.40;;;4.10;99.90;;;;;;5050570;28;20460;-73
2022/09/30 04:41:21;;;;;;;11.67;7.20;;;4.10;99.90;;;;;;5050198;28;20969;-73
2022/09/30 04:43:48;;;;;;;12.60;7.60;;;4.10;99.90;;;;;;5044526;28;20488;-74
2022/09/30 04:46:16;;;;;;;17.97;7.00;;;4.00;99.90;;;;;;5049823;28;20468;-73
2022/09/30 04:48:44;;;;;;;12.73;7.63;;;4.00;99.90;;;;;;5050420;28;20459;-73
2022/09/30 04:51:11;;;;;;;15.97;7.43;;;3.90;99.90;;;;;;5050391;28;20463;-73
2022/09/30 04:53:38;;;;;;;11.23;7.30;;;3.80;99.90;;;;;;5049324;28;20460;-73
2022/09/30 04:56:06;;;;;;;8.07;6.90;;;3.80;99.90;;;;;;5049478;28;21075;-74
2022/09/30 04:58:35;;;;;;;8.30;6.23;;;3.70;99.90;;;;;;5052905;28;20460;-73
2022/09/30 05:01:02;;;;;;;6.77;6.07;;;3.70;99.90;;;;;;5054031;28;20454;-73
2022/09/30 05:03:29;;;;;;;8.63;6.33;;;3.70;99.90;;;;;;5053653;28;20462;-73
2022/09/30 05:05:56;;;;;;;8.23;6.20;;;3.70;99.90;;;;;;5054375;28;20449;-73
2022/09/30 05:08:23;;;;;;;13.80;7.20;;;3.60;99.90;;;;;;5053662;28;20456;-73
2022/09/30 05:10:56;;;;;;;9.70;7.27;;;3.60;99.90;;;;;;5054136;28;20449;-73
2022/09/30 05:13:24;;;;;;;10.13;7.67;;;3.60;99.90;;;;;;5053693;28;20458;-74
2022/09/30 05:15:52;;;;;;;9.20;6.90;;;3.60;99.90;;;;;;5053776;28;20475;-73
2022/09/30 05:18:19;;;;;;;8.23;6.67;;;3.60;99.90;;;;;;5054986;28;20463;-73
2022/09/30 05:20:49;;;;;;;12.73;7.47;;;3.50;99.90;;;;;;5054631;28;20453;-74
2022/09/30 05:23:17;;;;;;;13.97;6.83;;;3.60;99.90;;;;;;5053361;28;20454;-73
2022/09/30 05:25:43;;;;;;;9.80;7.83;;;3.50;99.90;;;;;;5053647;28;21020;-73
2022/09/30 05:28:11;;;;;;;12.03;8.17;;;3.50;99.90;;;;;;5054477;28;20528;-73
2022/09/30 05:30:38;;;;;;;15.37;8.70;;;3.50;99.90;;;;;;5053990;28;20458;-73
2022/09/30 05:33:06;;;;;;;27.83;7.77;;;3.50;99.90;;;;;;5054341;28;20964;-73
2022/09/30 05:35:33;;;;;;;13.47;8.10;;;3.50;99.90;;;;;;5053683;28;21042;-73
2022/09/30 05:38:02;;;;;;;18.10;8.87;;;3.50;99.90;;;;;;5053986;28;20870;-75
2022/09/30 05:40:28;;;;;;;17.80;8.70;;;3.50;99.90;;;;;;5054199;28;20471;-73
2022/09/30 05:42:56;;;;;;;16.03;8.30;;;3.50;99.90;;;;;;5054518;28;20929;-74
2022/09/30 05:45:23;;;;;;;13.80;8.40;;;3.60;99.90;;;;;;5054351;28;20470;-73
2022/09/30 05:47:52;;;;;;;60.30;9.20;;;3.60;99.90;;;;;;5054306;28;20492;-74
2022/09/30 05:50:20;;;;;;;35.27;8.53;;;3.60;99.90;;;;;;5054080;28;20485;-73
2022/09/30 05:52:48;;;;;;;20.63;9.00;;;3.70;99.90;;;;;;5053917;28;20473;-73
2022/09/30 05:55:15;;;;;;;21.33;9.30;;;3.70;99.90;;;;;;5054821;28;20864;-75
2022/09/30 05:57:42;;;;;;;18.00;7.97;;;3.70;99.90;;;;;;5054227;28;20456;-76
2022/09/30 06:00:10;;;;;;;15.20;8.07;;;3.60;99.90;;;;;;5054087;28;20879;-76
2022/09/30 06:02:37;;;;;;;11.77;7.30;;;3.70;99.90;;;;;;5054043;28;21162;-77
2022/09/30 06:05:04;;;;;;;22.10;7.50;;;3.60;99.90;;;;;;5054280;28;20526;-75
2022/09/30 06:07:33;;;;;;;12.87;8.20;;;3.60;99.90;;;;;;5054515;28;20453;-75
2022/09/30 06:10:00;;;;;;;10.27;7.23;;;3.70;99.90;;;;;;5053795;28;20458;-75
2022/09/30 06:12:27;;;;;;;8.93;6.70;;;4.00;99.90;;;;;;5054312;28;20980;-75
2022/09/30 06:14:54;;;;;;;7.90;6.30;;;4.40;99.90;;;;;;5054108;28;20813;-75
2022/09/30 06:17:21;;;;;;;13.80;6.00;;;4.90;99.90;;;;;;5054021;28;20451;-76
2022/09/30 06:19:48;;;;;;;9.00;6.03;;;5.30;99.90;;;;;;5051575;28;20460;-76
2022/09/30 06:22:15;;;;;;;6.27;5.50;;;5.80;99.90;;;;;;5049732;28;20556;-76
2022/09/30 06:24:43;;;;;;;6.37;5.53;;;6.20;99.90;;;;;;5049828;28;20913;-75
2022/09/30 06:27:10;;;;;;;6.30;5.70;;;6.60;99.90;;;;;;5050716;28;20446;-75
2022/09/30 06:29:37;;;;;;;9.30;5.50;;;7.00;99.90;;;;;;5053755;28;21219;-75
2022/09/30 06:32:05;;;;;;;8.13;5.83;;;7.50;99.90;;;;;;5052406;28;20544;-75
2022/09/30 06:34:32;;;;;;;15.63;5.90;;;8.10;99.90;;;;;;5052288;28;21003;-75
2022/09/30 06:36:58;;;;;;;7.10;6.37;;;8.60;99.90;;;;;;5052892;28;20496;-75
2022/09/30 06:39:26;;;;;;;7.73;6.30;;;9.10;99.90;;;;;;5053409;28;20807;-75
2022/09/30 06:41:55;;;;;;;10.00;7.57;;;9.60;99.90;;;;;;5053271;28;20545;-75
2022/09/30 06:44:21;;;;;;;9.10;6.70;;;9.90;99.90;;;;;;5053342;28;20474;-75
2022/09/30 06:46:48;;;;;;;11.63;5.90;;;10.20;99.90;;;;;;5053057;28;20488;-75
2022/09/30 06:49:15;;;;;;;9.20;7.20;;;10.40;99.90;;;;;;5053313;28;20449;-75
2022/09/30 06:51:42;;;;;;;12.33;6.93;;;10.70;99.90;;;;;;5053278;28;20450;-75
2022/09/30 06:54:08;;;;;;;8.77;6.60;;;10.80;99.90;;;;;;5052935;28;20476;-75
2022/09/30 06:56:35;;;;;;;10.53;6.80;;;11.20;99.90;;;;;;5052836;28;20492;-74
2022/09/30 06:59:03;;;;;;;12.07;7.97;;;11.40;99.90;;;;;;5052967;28;20482;-74
2022/09/30 07:01:30;;;;;;;8.27;6.90;;;11.60;99.90;;;;;;5052938;28;20833;-75
2022/09/30 07:03:57;;;;;;;8.63;6.40;;;11.80;99.90;;;;;;5053082;28;20477;-75
2022/09/30 07:06:25;;;;;;;7.70;6.30;;;12.10;99.90;;;;;;5053158;28;20449;-75
2022/09/30 07:08:52;;;;;;;9.63;7.17;;;12.40;99.90;;;;;;5053184;28;20865;-76
2022/09/30 07:11:19;;;;;;;7.50;6.20;;;12.70;99.90;;;;;;5053138;28;20456;-75
2022/09/30 07:13:48;;;;;;;7.43;6.50;;;12.80;99.90;;;;;;5052465;28;20472;-75
2022/09/30 07:16:17;;;;;;;7.83;6.67;;;13.10;99.90;;;;;;5052583;28;20862;-75
2022/09/30 07:18:45;;;;;;;10.13;6.97;;;13.30;99.90;;;;;;5052520;28;20448;-75
2022/09/30 07:21:14;;;;;;;12.50;5.97;;;13.20;99.90;;;;;;5052388;28;20453;-75
2022/09/30 07:23:46;;;;;;;7.90;6.03;;;13.00;99.90;;;;;;5052581;28;20492;-75
2022/09/30 07:26:14;;;;;;;9.70;6.10;;;12.80;99.90;;;;;;5052416;28;20449;-75
2022/09/30 07:28:42;;;;;;;8.70;6.17;;;12.80;99.90;;;;;;5052319;28;20442;-75
2022/09/30 07:31:12;;;;;;;7.63;6.27;;;12.70;99.90;;;;;;5052366;28;20453;-75
2022/09/30 07:33:40;;;;;;;7.67;6.90;;;12.60;99.90;;;;;;5052240;28;20456;-75
2022/09/30 07:36:07;;;;;;;11.50;8.70;;;12.30;99.90;;;;;;5051819;28;20829;-75
2022/09/30 07:38:37;;;;;;;7.60;6.40;;;12.20;99.90;;;;;;5052305;28;20455;-75
2022/09/30 07:41:06;;;;;;;8.57;6.90;;;12.10;99.90;;;;;;5052476;28;20447;-75
2022/09/30 07:43:37;;;;;;;8.27;7.30;;;12.10;99.90;;;;;;5052207;28;20441;-75
2022/09/30 07:46:06;;;;;;;9.03;7.40;;;12.00;99.90;;;;;;5051636;28;20459;-75
2022/09/30 07:51:20;;;;;;;7.90;7.10;;;12.00;99.90;;;;;;5051765;28;20501;-75
2022/09/30 07:53:49;;;;;;;14.47;8.60;;;12.10;99.90;;;;;;5051950;28;20464;-75
2022/09/30 07:56:17;;;;;;;7.53;6.80;;;12.10;99.90;;;;;;5051714;28;20508;-75
2022/09/30 07:58:44;;;;;;;8.50;6.40;;;12.10;99.90;;;;;;5052208;28;20493;-75
2022/09/30 08:01:12;;;;;;;8.23;6.13;;;12.20;99.90;;;;;;5052360;28;20454;-75
2022/09/30 08:03:40;;;;;;;5.93;5.40;;;12.30;99.90;;;;;;5051830;28;20457;-76
2022/09/30 08:06:09;;;;;;;13.70;10.40;;;12.40;99.90;;;;;;5051612;28;20512;-75
2022/09/30 08:08:38;;;;;;;16.10;12.63;;;12.70;99.90;;;;;;5051814;28;20455;-76
2022/09/30 08:11:06;;;;;;;19.43;14.77;;;12.60;99.90;;;;;;5052432;28;20462;-75
2022/09/30 08:13:33;;;;;;;18.57;14.83;;;12.60;99.90;;;;;;5052187;28;20450;-75
2022/09/30 08:16:00;;;;;;;21.20;16.47;;;12.80;99.90;;;;;;5051553;28;20488;-75
2022/09/30 08:18:27;;;;;;;22.03;17.30;;;12.80;99.90;;;;;;5051972;28;20455;-75
2022/09/30 08:20:54;;;;;;;29.10;19.47;;;12.50;99.90;;;;;;5049295;28;20503;-76
2022/09/30 08:23:21;;;;;;;24.20;19.63;;;12.50;99.90;;;;;;5031904;28;20539;-75
2022/09/30 08:25:49;;;;;;;22.27;17.33;;;12.60;99.90;;;;;;5031324;28;20477;-76
2022/09/30 08:28:17;;;;;;;25.33;20.70;;;12.90;99.90;;;;;;5042187;28;20454;-75
2022/09/30 08:30:44;;;;;;;20.60;16.37;;;13.10;99.90;;;;;;5051744;28;20488;-76
2022/09/30 08:33:10;;;;;;;20.53;15.27;;;13.50;99.90;;;;;;5054224;28;20458;-76
2022/09/30 08:35:37;;;;;;;20.60;15.90;;;13.60;99.90;;;;;;5055334;28;20837;-75
2022/09/30 08:38:04;;;;;;;17.37;14.53;;;13.80;99.90;;;;;;5056631;28;20459;-76
2022/09/30 08:40:33;;;;;;;19.47;15.63;;;13.80;99.90;;;;;;5057008;28;20821;-76
2022/09/30 08:43:21;;;;;;;18.63;14.30;;;13.80;99.90;;;;;;5056977;28;20454;-76
2022/09/30 08:45:58;;;;;;;17.90;14.17;;;13.80;99.90;;;;;;5055449;28;20496;-76
2022/09/30 08:48:39;;;;;;;16.20;14.47;;;13.70;99.90;;;;;;5055951;28;20445;-76
2022/09/30 08:51:19;;;;;;;13.90;12.20;;;13.80;99.90;;;;;;5055708;28;20445;-75
2022/09/30 08:53:47;;;;;;;14.53;11.57;;;13.90;99.90;;;;;;5055701;28;20469;-75
2022/09/30 08:56:23;;;;;;;27.60;16.43;;;14.00;99.90;;;;;;5055289;28;20476;-76
2022/09/30 08:58:53;;;;;;;16.67;10.90;;;14.30;99.90;;;;;;5055427;28;20459;-75
2022/09/30 09:01:26;;;;;;;13.80;11.53;;;14.70;99.90;;;;;;5055561;28;20925;-75
2022/09/30 09:03:54;;;;;;;21.07;12.37;;;15.10;99.90;;;;;;5055470;28;20469;-76
2022/09/30 09:06:28;;;;;;;17.43;12.33;;;15.30;99.90;;;;;;5055037;28;20478;-76
2022/09/30 09:09:16;;;;;;;18.13;10.90;;;15.50;99.90;;;;;;5055156;28;20453;-76
2022/09/30 09:12:01;;;;;;;9.90;8.90;;;15.50;99.90;;;;;;5055551;28;20431;-76
2022/09/30 09:14:39;;;;;;;10.37;9.00;;;15.50;99.90;;;;;;5055467;28;20473;-76
2022/09/30 09:17:26;;;;;;;9.83;8.83;;;15.70;99.90;;;;;;5055008;28;20487;-76
2022/09/30 09:20:02;;;;;;;10.23;8.53;;;16.10;99.90;;;;;;5057188;28;20838;-76
2022/09/30 09:22:31;;;;;;;8.87;7.97;;;16.20;99.90;;;;;;5039672;28;20441;-75
2022/09/30 09:24:59;;;;;;;8.30;7.50;;;16.20;99.90;;;;;;5034752;28;20470;-76
2022/09/30 09:27:35;;;;;;;8.27;7.47;;;16.10;99.90;;;;;;5038256;28;20792;-75
2022/09/30 09:30:07;;;;;;;12.23;8.37;;;16.00;99.90;;;;;;5054951;28;20457;-75
2022/09/30 09:32:34;;;;;;;9.97;7.87;;;15.70;99.90;;;;;;5054708;28;20439;-75
2022/09/30 09:35:12;;;;;;;13.90;8.77;;;15.60;99.90;;;;;;5054554;28;20492;-76
2022/09/30 09:40:41;;;;;;;14.73;9.10;;;16.00;99.90;;;;;;5054467;28;20428;-76
2022/09/30 09:43:20;;;;;;;12.90;8.80;;;16.20;99.90;;;;;;5054718;28;20449;-76
2022/09/30 09:45:56;;;;;;;11.10;9.17;;;16.20;99.90;;;;;;5054251;28;20479;-76
2022/09/30 09:48:23;;;;;;;17.50;10.37;;;15.90;99.90;;;;;;5054320;28;20453;-76
2022/09/30 09:51:00;;;;;;;16.13;10.47;;;16.10;99.90;;;;;;5054499;28;20427;-76
2022/09/30 09:53:44;;;;;;;12.90;9.20;;;16.50;99.90;;;;;;5055503;28;20487;-75
2022/09/30 09:56:17;;;;;;;13.30;9.13;;;16.40;99.90;;;;;;5054086;28;20528;-76
2022/09/30 09:59:07;;;;;;;12.60;9.13;;;16.50;99.90;;;;;;5054177;28;20474;-76
2022/09/30 10:01:37;;;;;;;12.90;9.27;;;16.30;99.90;;;;;;5054160;28;20467;-76
2022/09/30 10:04:15;;;;;;;15.00;8.50;;;16.20;99.90;;;;;;5054332;28;20474;-75
2022/09/30 10:06:51;;;;;;;15.63;10.07;;;16.00;99.90;;;;;;5053862;28;20432;-75
2022/09/30 10:09:30;;;;;;;13.07;10.30;;;15.80;99.90;;;;;;5054053;28;20780;-74
2022/09/30 10:12:21;;;;;;;11.53;9.87;;;15.90;99.90;;;;;;5053814;28;20444;-74
2022/09/30 10:14:52;;;;;;;14.10;9.73;;;16.20;99.90;;;;;;5053973;28;21057;-74
2022/09/30 10:17:24;;;;;;;12.03;10.00;;;16.20;99.90;;;;;;5053820;28;20492;-75
2022/09/30 10:19:53;;;;;;;15.07;10.43;;;16.00;99.90;;;;;;5053750;28;20456;-74
2022/09/30 10:22:26;;;;;;;16.90;9.40;;;16.20;99.90;;;;;;5039803;28;20821;-75
2022/09/30 10:25:10;;;;;;;14.60;9.97;;;16.50;99.90;;;;;;5033690;28;20447;-75
2022/09/30 10:27:37;;;;;;;12.23;9.03;;;17.00;99.90;;;;;;5038923;28;20471;-75
2022/09/30 10:30:05;;;;;;;14.60;9.97;;;17.10;99.90;;;;;;5053578;28;20503;-75
2022/09/30 10:32:33;;;;;;;9.90;8.73;;;17.10;99.90;;;;;;5053454;28;20424;-75
2022/09/30 10:35:04;;;;;;;16.60;10.07;;;17.20;99.90;;;;;;5053756;28;20469;-75
2022/09/30 10:37:31;;;;;;;12.60;9.93;;;17.40;99.90;;;;;;5053123;28;20832;-75
2022/09/30 10:40:01;;;;;;;13.27;9.73;;;17.20;99.90;;;;;;5053622;28;20460;-75
2022/09/30 10:42:31;;;;;;;12.80;8.93;;;17.30;99.90;;;;;;5053686;28;20457;-75
2022/09/30 10:45:01;;;;;;;10.20;9.20;;;17.10;99.90;;;;;;5053478;28;20447;-75
2022/09/30 10:47:29;;;;;;;14.40;10.10;;;17.20;99.90;;;;;;5053299;28;20805;-75
2022/09/30 10:50:04;;;;;;;15.00;10.47;;;17.30;99.90;;;;;;5053981;28;20922;-75
2022/09/30 10:52:33;;;;;;;19.03;11.40;;;17.40;99.90;;;;;;5053167;28;20449;-75
2022/09/30 10:55:04;;;;;;;15.57;10.50;;;17.10;99.90;;;;;;5052686;28;20465;-75
2022/09/30 10:57:33;;;;;;;13.77;10.60;;;17.10;99.90;;;;;;5052893;28;21004;-75
2022/09/30 11:00:05;;;;;;;15.70;11.30;;;17.20;99.90;;;;;;5053176;28;20449;-75
2022/09/30 11:02:38;;;;;;;12.80;10.03;;;17.20;99.90;;;;;;5052838;28;20493;-74
2022/09/30 11:05:14;;;;;;;14.03;10.37;;;16.90;99.90;;;;;;5052804;28;20473;-75
2022/09/30 11:07:46;;;;;;;14.40;10.17;;;16.60;99.90;;;;;;5052933;28;20412;-75
2022/09/30 11:10:27;;;;;;;13.00;10.43;;;16.50;99.90;;;;;;5052983;28;20427;-75
2022/09/30 11:12:59;;;;;;;13.17;10.33;;;16.60;99.90;;;;;;5052692;28;20907;-75
2022/09/30 11:15:31;;;;;;;13.23;10.07;;;16.30;99.90;;;;;;5052288;28;20970;-75
2022/09/30 11:18:03;;;;;;;15.43;10.33;;;16.10;99.90;;;;;;5052800;28;20481;-75
2022/09/30 11:20:35;;;;;;;17.77;10.80;;;15.90;99.90;;;;;;5052667;28;20456;-75
2022/09/30 11:23:06;;;;;;;15.43;10.13;;;15.90;99.90;;;;;;5032690;28;20485;-75
2022/09/30 11:25:42;;;;;;;14.67;11.17;;;16.10;99.90;;;;;;5032568;28;20470;-75
2022/09/30 11:28:31;;;;;;;17.63;13.03;;;16.40;99.90;;;;;;5042062;28;20419;-75
2022/09/30 11:31:08;;;;;;;14.40;10.00;;;16.70;99.90;;;;;;5052662;28;20441;-75
2022/09/30 11:33:44;;;;;;;12.77;10.53;;;17.00;99.90;;;;;;5052292;28;20927;-75
2022/09/30 11:36:24;;;;;;;11.93;9.13;;;17.60;99.90;;;;;;5051821;28;20448;-75
2022/09/30 11:39:16;;;;;;;13.17;9.37;;;18.10;99.90;;;;;;5052609;28;20484;-75
2022/09/30 11:41:50;;;;;;;19.83;9.07;;;18.50;99.90;;;;;;5052140;28;20427;-75
2022/09/30 11:44:27;;;;;;;14.00;9.20;;;19.10;99.90;;;;;;5052296;28;20951;-75
2022/09/30 11:47:10;;;;;;;8.50;6.80;;;19.40;99.90;;;;;;5052015;28;20431;-75
2022/09/30 11:49:58;;;;;;;13.50;7.03;;;19.40;99.90;;;;;;5052394;28;20815;-75
2022/09/30 11:52:34;;;;;;;15.10;7.13;;;19.30;99.90;;;;;;5051910;28;20431;-74
2022/09/30 11:55:28;;;;;;;13.77;6.17;;;19.20;99.90;;;;;;5052492;28;20443;-75
2022/09/30 11:58:01;;;;;;;12.23;6.53;;;19.30;99.90;;;;;;5046754;28;20538;-75
2022/09/30 12:00:30;;;;;;;8.90;6.00;;;19.50;99.90;;;;;;5052084;28;20460;-75
2022/09/30 12:03:01;;;;;;;7.20;5.63;;;19.00;99.90;;;;;;5052139;28;20457;-75
2022/09/30 12:05:32;;;;;;;11.57;6.40;;;18.90;99.90;;;;;;5051896;28;20472;-75
2022/09/30 12:08:10;;;;;;;9.33;6.00;;;18.90;99.90;;;;;;5051104;28;20482;-75
2022/09/30 12:10:42;;;;;;;11.30;6.30;;;18.90;99.90;;;;;;5052156;28;20445;-75
2022/09/30 12:13:12;;;;;;;9.30;5.70;;;18.70;99.90;;;;;;5051650;28;20938;-74
2022/09/30 12:15:42;;;;;;;7.53;5.50;;;18.30;99.90;;;;;;5051746;28;20951;-74
2022/09/30 12:18:13;;;;;;;9.53;5.90;;;17.80;99.90;;;;;;5051552;28;20984;-75
2022/09/30 12:20:45;;;;;;;8.33;6.70;;;18.20;99.90;;;;;;5051241;28;20435;-75
2022/09/30 12:23:20;;;;;;;10.50;6.30;;;18.90;99.90;;;;;;5032043;28;20424;-75
2022/09/30 12:25:52;;;;;;;7.10;6.33;;;19.10;99.90;;;;;;5031436;28;20469;-74
2022/09/30 12:31:26;;;;;;;11.80;5.70;;;18.50;99.90;;;;;;5052120;28;20979;-75
2022/09/30 12:34:11;;;;;;;8.17;4.50;;;18.40;99.90;;;;;;5051424;28;20939;-74
2022/09/30 12:37:09;;;;;;;7.50;5.43;;;18.80;99.90;;;;;;5051385;28;20449;-75
2022/09/30 12:40:07;;;;;;;5.03;4.63;;;18.70;99.90;;;;;;5051547;28;20941;-74
2022/09/30 12:43:13;;;;;;;8.77;4.60;;;18.60;99.90;;;;;;5051720;28;20455;-74
2022/09/30 12:46:01;;;;;;;8.93;5.10;;;18.10;99.90;;;;;;5051837;28;20471;-75
2022/09/30 12:48:35;;;;;;;7.87;5.90;;;17.50;99.90;;;;;;5049590;28;20452;-75
2022/09/30 12:51:02;;;;;;;8.20;5.10;;;17.10;99.90;;;;;;5051552;28;20771;-74
2022/09/30 12:53:32;;;;;;;7.70;5.63;;;16.60;99.90;;;;;;5051467;28;20419;-74
2022/09/30 12:56:06;;;;;;;11.97;5.60;;;16.40;99.90;;;;;;5051273;28;20441;-74
2022/09/30 12:58:36;;;;;;;6.97;5.47;;;16.30;99.90;;;;;;5051097;28;20482;-74
2022/09/30 13:01:07;;;;;;;6.80;5.30;;;16.20;99.90;;;;;;5051297;28;20459;-74
2022/09/30 13:03:50;;;;;;;10.77;6.07;;;16.20;99.90;;;;;;5051346;28;20453;-74
2022/09/30 13:06:19;;;;;;;6.97;5.50;;;16.20;99.90;;;;;;5051201;28;20449;-74
2022/09/30 13:08:49;;;;;;;9.07;5.47;;;16.20;99.90;;;;;;5051144;28;20945;-74
2022/09/30 13:11:40;;;;;;;7.50;5.13;;;16.10;99.90;;;;;;5051428;28;20507;-74
2022/09/30 13:14:23;;;;;;;7.20;5.77;;;15.90;99.90;;;;;;5047047;28;20499;-74
2022/09/30 13:17:01;;;;;;;12.43;5.80;;;15.90;99.90;;;;;;5050805;28;20471;-74
2022/09/30 13:19:35;;;;;;;8.27;4.80;;;16.00;99.90;;;;;;5053671;28;20453;-74